createdAt,value
2019-05-17T00:01:07.322Z,10.72
2019-05-17T00:03:42.275Z,10.71
2019-05-17T00:06:17.041Z,10.73
2019-05-17T00:08:51.673Z,10.74
2019-05-17T00:11:27.383Z,10.74
2019-05-17T00:14:02.258Z,10.72
2019-05-17T00:16:37.490Z,10.64
2019-05-17T00:19:12.274Z,10.63
2019-05-17T00:21:47.505Z,10.61
2019-05-17T00:24:21.950Z,10.62
2019-05-17T00:26:58.487Z,10.65
2019-05-17T00:29:32.325Z,10.70
2019-05-17T00:32:06.874Z,10.70
2019-05-17T00:34:39.996Z,10.67
2019-05-17T00:37:12.888Z,10.65
2019-05-17T00:39:47.109Z,10.62
2019-05-17T00:42:21.674Z,10.60
2019-05-17T00:44:56.522Z,10.60
2019-05-17T00:47:30.947Z,10.61
2019-05-17T00:50:03.800Z,10.63
2019-05-17T00:52:38.273Z,10.66
2019-05-17T00:55:12.940Z,10.64
2019-05-17T00:57:47.623Z,10.61
2019-05-17T01:00:22.275Z,10.62
2019-05-17T01:02:57.342Z,10.61
2019-05-17T01:05:31.945Z,10.61
2019-05-17T01:08:07.291Z,10.61
2019-05-17T01:10:42.106Z,10.62
2019-05-17T01:13:17.303Z,10.57
2019-05-17T01:15:51.949Z,10.56
2019-05-17T01:18:26.958Z,10.56
2019-05-17T01:21:01.776Z,10.53
2019-05-17T01:23:36.357Z,10.53
2019-05-17T01:26:11.279Z,10.46
2019-05-17T01:28:46.778Z,10.41
2019-05-17T01:31:21.304Z,10.37
2019-05-17T01:33:56.504Z,10.37
2019-05-17T01:36:31.272Z,10.39
2019-05-17T01:39:17.024Z,10.39
2019-05-17T01:41:42.316Z,10.42
2019-05-17T01:44:16.940Z,10.42
2019-05-17T01:46:51.322Z,10.40
2019-05-17T01:49:27.115Z,10.40
2019-05-17T01:52:01.836Z,10.37
2019-05-17T01:54:36.266Z,10.36
2019-05-17T01:57:10.664Z,10.37
2019-05-17T01:59:46.667Z,10.37
2019-05-17T02:02:24.248Z,10.37
2019-05-17T02:04:58.367Z,10.39
2019-05-17T02:07:32.889Z,10.39
2019-05-17T02:10:07.866Z,10.39
2019-05-17T02:12:42.123Z,10.37
2019-05-17T02:15:20.267Z,10.40
2019-05-17T02:17:54.697Z,10.39
2019-05-17T02:20:29.118Z,10.43
2019-05-17T02:23:03.694Z,10.45
2019-05-17T02:25:38.118Z,10.42
2019-05-17T02:28:12.770Z,10.39
2019-05-17T02:30:47.773Z,10.38
2019-05-17T02:33:23.643Z,10.38
2019-05-17T02:35:56.738Z,10.40
2019-05-17T02:38:33.325Z,10.40
2019-05-17T02:41:08.276Z,10.40
2019-05-17T02:43:43.419Z,10.44
2019-05-17T02:46:17.957Z,10.44
2019-05-17T02:48:53.913Z,10.42
2019-05-17T02:51:28.326Z,10.41
2019-05-17T02:54:04.304Z,10.41
2019-05-17T02:56:38.919Z,10.41
2019-05-17T02:59:13.759Z,10.39
2019-05-17T03:01:46.864Z,10.39
2019-05-17T03:04:23.663Z,10.41
2019-05-17T03:06:55.703Z,10.43
2019-05-17T03:09:33.295Z,10.41
2019-05-17T03:12:04.821Z,10.41
2019-05-17T03:14:39.100Z,10.40
2019-05-17T03:17:14.233Z,10.42
2019-05-17T03:19:48.711Z,10.42
2019-05-17T03:22:23.285Z,10.44
2019-05-17T03:24:57.723Z,10.43
2019-05-17T03:27:33.777Z,10.46
2019-05-17T03:30:08.881Z,10.45
2019-05-17T03:32:47.620Z,10.47
2019-05-17T03:35:25.875Z,10.45
2019-05-17T03:37:57.273Z,10.40
2019-05-17T03:41:00.968Z,10.42
2019-05-17T03:43:08.319Z,10.41
2019-05-17T03:45:42.777Z,10.45
2019-05-17T03:48:15.693Z,10.49
2019-05-17T03:50:52.879Z,10.49
2019-05-17T03:53:26.282Z,10.53
2019-05-17T03:56:03.020Z,10.53
2019-05-17T03:58:36.936Z,10.56
2019-05-17T04:01:14.123Z,10.56
2019-05-17T04:03:47.253Z,10.57
2019-05-17T04:06:23.890Z,10.57
2019-05-17T04:08:57.923Z,10.57
2019-05-17T04:11:36.286Z,10.57
2019-05-17T04:14:08.305Z,10.55
2019-05-17T04:16:43.036Z,10.56
2019-05-17T04:19:17.693Z,10.61
2019-05-17T04:21:53.730Z,10.61
2019-05-17T04:24:27.018Z,10.63
2019-05-17T04:27:03.688Z,10.62
2019-05-17T04:29:37.240Z,10.70
2019-05-17T04:32:12.925Z,10.70
2019-05-17T04:34:47.675Z,10.73
2019-05-17T04:37:22.771Z,10.77
2019-05-17T04:39:58.341Z,10.81
2019-05-17T04:42:33.221Z,10.83
2019-05-17T04:45:08.313Z,10.84
2019-05-17T04:47:44.130Z,10.89
2019-05-17T04:50:22.775Z,10.94
2019-05-17T04:52:56.267Z,10.93
2019-05-17T04:55:33.786Z,10.94
2019-05-17T04:58:07.936Z,10.95
2019-05-17T05:00:43.029Z,11.01
2019-05-17T05:03:17.777Z,11.01
2019-05-17T05:05:53.538Z,11.05
2019-05-17T05:08:26.725Z,11.12
2019-05-17T05:11:04.137Z,11.14
2019-05-17T05:16:17.728Z,11.34
2019-05-17T05:18:52.254Z,11.35
2019-05-17T05:21:26.711Z,11.49
2019-05-17T05:23:59.676Z,11.54
2019-05-17T05:26:33.938Z,11.56
2019-05-17T05:29:08.274Z,11.58
2019-05-17T05:31:42.883Z,11.65
2019-05-17T05:34:17.391Z,11.70
2019-05-17T05:36:52.581Z,11.77
2019-05-17T05:39:27.274Z,11.82
2019-05-17T05:42:07.917Z,11.79
2019-05-17T05:44:37.945Z,11.81
2019-05-17T05:47:12.288Z,11.78
2019-05-17T05:49:46.931Z,11.80
2019-05-17T05:52:21.829Z,11.76
2019-05-17T05:54:56.342Z,11.87
2019-05-17T05:57:32.196Z,11.98
2019-05-17T06:00:08.285Z,12.03
2019-05-17T06:02:42.909Z,12.16
2019-05-17T06:05:17.950Z,12.25
2019-05-17T06:07:52.205Z,12.39
2019-05-17T06:10:27.298Z,12.45
2019-05-17T06:13:03.262Z,12.50
2019-05-17T06:15:38.266Z,12.55
2019-05-17T06:18:12.732Z,12.59
2019-05-17T06:20:46.077Z,12.68
2019-05-17T06:23:23.203Z,12.75
2019-05-17T06:25:57.114Z,12.81
2019-05-17T06:28:32.023Z,12.82
2019-05-17T06:31:06.955Z,12.90
2019-05-17T06:33:42.282Z,12.94
2019-05-17T06:36:17.288Z,12.94
2019-05-17T06:38:52.777Z,13.05
2019-05-17T06:41:27.280Z,13.18
2019-05-17T06:44:02.908Z,13.29
2019-05-17T06:46:37.775Z,13.34
2019-05-17T06:49:12.560Z,13.34
2019-05-17T06:51:47.263Z,13.38
2019-05-17T06:54:21.818Z,13.48
2019-05-17T06:56:56.278Z,13.65
2019-05-17T06:59:30.933Z,14.20
2019-05-17T07:02:05.688Z,15.13
2019-05-17T07:04:39.496Z,15.13
2019-05-17T07:07:27.280Z,15.62
2019-05-17T07:10:02.342Z,16.05
2019-05-17T07:12:51.094Z,16.05
2019-05-17T07:15:14.135Z,16.10
2019-05-17T07:17:50.487Z,16.23
2019-05-17T07:20:25.432Z,16.28
2019-05-17T07:23:01.278Z,15.96
2019-05-17T07:25:35.921Z,15.58
2019-05-17T07:28:10.016Z,15.35
2019-05-17T07:30:45.275Z,15.70
2019-05-17T07:33:21.106Z,15.97
2019-05-17T07:35:55.749Z,17.42
2019-05-17T07:38:30.467Z,17.42
2019-05-17T07:41:05.278Z,17.54
2019-05-17T07:43:40.524Z,17.15
2019-05-17T07:46:14.276Z,16.90
2019-05-17T07:48:49.734Z,17.56
2019-05-17T07:51:24.416Z,17.56
2019-05-17T07:53:59.706Z,17.68
2019-05-17T07:56:34.363Z,18.31
2019-05-17T07:59:09.582Z,18.31
2019-05-17T08:01:44.334Z,18.84
2019-05-17T08:04:20.443Z,19.52
2019-05-17T08:06:55.398Z,19.52
2019-05-17T08:09:30.283Z,19.50
2019-05-17T08:12:05.089Z,20.10
2019-05-17T08:14:40.173Z,20.83
2019-05-17T08:17:15.286Z,20.83
2019-05-17T08:19:50.008Z,20.99
2019-05-17T08:22:24.681Z,21.12
2019-05-17T08:25:00.042Z,21.12
2019-05-17T08:27:34.893Z,20.70
2019-05-17T08:30:10.585Z,20.82
2019-05-17T08:32:45.311Z,21.17
2019-05-17T08:35:20.098Z,21.55
2019-05-17T08:37:54.957Z,22.61
2019-05-17T08:40:30.725Z,22.61
2019-05-17T08:43:05.299Z,22.80
2019-05-17T08:45:40.909Z,22.36
2019-05-17T08:48:15.755Z,21.38
2019-05-17T08:50:50.341Z,21.38
2019-05-17T08:53:24.945Z,21.55
2019-05-17T08:56:01.016Z,21.74
2019-05-17T08:58:35.947Z,21.94
2019-05-17T09:01:11.706Z,20.90
2019-05-17T09:03:45.018Z,20.90
2019-05-17T09:06:19.896Z,20.51
2019-05-17T09:08:54.689Z,20.43
2019-05-17T09:11:30.202Z,20.10
2019-05-17T09:14:03.106Z,19.82
2019-05-17T09:16:40.069Z,19.52
2019-05-17T09:19:14.290Z,19.52
2019-05-17T09:21:50.341Z,19.33
2019-05-17T09:24:25.354Z,19.31
2019-05-17T09:27:01.311Z,19.88
2019-05-17T09:29:36.211Z,19.88
2019-05-17T09:32:11.213Z,21.08
2019-05-17T09:34:46.131Z,22.76
2019-05-17T09:37:22.691Z,22.29
2019-05-17T09:39:55.866Z,21.04
2019-05-17T09:42:30.006Z,21.08
2019-05-17T09:45:06.259Z,20.62
2019-05-17T09:47:41.260Z,20.33
2019-05-17T09:50:16.951Z,21.16
2019-05-17T09:52:51.665Z,22.35
2019-05-17T09:55:26.282Z,23.39
2019-05-17T09:58:01.269Z,24.07
2019-05-17T10:00:36.286Z,24.40
2019-05-17T10:03:11.072Z,23.08
2019-05-17T10:05:45.691Z,21.80
2019-05-17T10:08:19.066Z,21.80
2019-05-17T10:11:04.953Z,21.62
2019-05-17T10:13:29.949Z,21.56
2019-05-17T10:16:04.297Z,21.60
2019-05-17T10:18:40.126Z,21.52
2019-05-17T10:21:15.276Z,21.14
2019-05-17T10:23:50.261Z,20.87
2019-05-17T10:26:25.261Z,20.37
2019-05-17T10:29:00.123Z,20.37
2019-05-17T10:31:34.778Z,19.39
2019-05-17T10:34:09.691Z,19.39
2019-05-17T10:36:44.327Z,19.33
2019-05-17T10:39:19.402Z,19.18
2019-05-17T10:41:54.290Z,19.10
2019-05-17T10:44:43.099Z,18.87
2019-05-17T10:47:10.098Z,18.72
2019-05-17T10:49:45.271Z,18.48
2019-05-17T10:52:20.364Z,18.30
2019-05-17T10:54:55.283Z,18.55
2019-05-17T10:57:30.370Z,18.55
2019-05-17T11:00:05.297Z,18.60
2019-05-17T11:02:39.036Z,18.68
2019-05-17T11:05:13.767Z,19.11
2019-05-17T11:07:50.475Z,19.11
2019-05-17T11:10:24.711Z,18.87
2019-05-17T11:12:59.296Z,18.87
2019-05-17T11:15:33.947Z,18.40
2019-05-17T11:18:08.410Z,18.40
2019-05-17T11:20:43.270Z,18.15
2019-05-17T11:23:18.340Z,18.38
2019-05-17T11:25:52.946Z,18.66
2019-05-17T11:28:27.694Z,19.00
2019-05-17T11:31:02.249Z,19.00
2019-05-17T11:33:36.941Z,19.30
2019-05-17T11:36:11.311Z,19.68
2019-05-17T11:38:45.896Z,19.68
2019-05-17T11:41:21.768Z,20.24
2019-05-17T11:43:56.699Z,20.24
2019-05-17T11:46:36.250Z,20.24
2019-05-17T11:49:06.377Z,21.12
2019-05-17T11:51:41.150Z,20.92
2019-05-17T11:54:15.741Z,20.99
2019-05-17T11:56:49.959Z,20.99
2019-05-17T11:59:24.708Z,20.79
2019-05-17T12:01:58.083Z,20.79
2019-05-17T12:04:32.648Z,21.29
2019-05-17T12:07:07.612Z,22.01
2019-05-17T12:09:42.282Z,21.43
2019-05-17T12:12:16.893Z,20.97
2019-05-17T12:14:51.302Z,20.72
2019-05-17T12:17:26.129Z,20.81
2019-05-17T12:20:00.880Z,20.62
2019-05-17T12:22:34.276Z,20.27
2019-05-17T12:25:09.152Z,20.27
2019-05-17T12:27:44.208Z,20.09
2019-05-17T12:30:19.289Z,19.90
2019-05-17T12:32:54.136Z,19.66
2019-05-17T12:35:28.865Z,19.70
2019-05-17T12:38:02.189Z,19.70
2019-05-17T12:40:36.703Z,21.65
2019-05-17T12:43:10.043Z,21.65
2019-05-17T12:45:43.069Z,21.25
2019-05-17T12:48:17.447Z,20.95
2019-05-17T12:50:52.287Z,20.78
2019-05-17T12:53:26.961Z,20.74
2019-05-17T12:56:01.668Z,20.96
2019-05-17T12:58:35.065Z,20.75
2019-05-17T13:01:09.730Z,20.49
2019-05-17T13:03:43.052Z,20.49
2019-05-17T13:06:17.630Z,20.78
2019-05-17T13:08:52.274Z,20.66
2019-05-17T13:11:26.883Z,20.61
2019-05-17T13:14:01.683Z,20.53
2019-05-17T13:16:36.279Z,20.52
2019-05-17T13:19:11.251Z,20.30
2019-05-17T13:21:45.927Z,20.25
2019-05-17T13:24:20.679Z,20.45
2019-05-17T13:26:55.277Z,20.50
2019-05-17T13:29:29.945Z,20.72
2019-05-17T13:32:04.642Z,20.72
2019-05-17T13:34:39.332Z,21.29
2019-05-17T13:37:15.271Z,23.03
2019-05-17T13:39:50.272Z,22.87
2019-05-17T13:42:24.950Z,21.30
2019-05-17T13:44:59.906Z,20.99
2019-05-17T13:47:34.287Z,20.99
2019-05-17T13:50:09.726Z,21.43
2019-05-17T13:52:43.949Z,21.43
2019-05-17T13:55:18.312Z,23.39
2019-05-17T13:57:52.779Z,26.36
2019-05-17T14:00:27.279Z,27.55
2019-05-17T14:03:01.778Z,25.32
2019-05-17T14:05:36.287Z,24.24
2019-05-17T14:08:10.873Z,23.77
2019-05-17T14:10:45.284Z,23.19
2019-05-17T14:13:19.788Z,22.93
2019-05-17T14:15:53.851Z,23.41
2019-05-17T14:18:26.673Z,23.16
2019-05-17T14:21:00.948Z,22.71
2019-05-17T14:23:35.286Z,22.20
2019-05-17T14:26:09.706Z,22.69
2019-05-17T14:28:42.807Z,22.96
2019-05-17T14:31:17.128Z,23.07
2019-05-17T14:33:51.734Z,23.68
2019-05-17T14:36:24.664Z,24.32
2019-05-17T14:38:58.960Z,23.91
2019-05-17T14:41:33.404Z,23.09
2019-05-17T14:44:07.950Z,23.09
2019-05-17T14:46:42.274Z,22.32
2019-05-17T14:49:16.778Z,21.92
2019-05-17T14:51:50.820Z,24.11
2019-05-17T14:54:25.249Z,24.92
2019-05-17T14:56:59.706Z,25.07
2019-05-17T14:59:34.101Z,23.75
2019-05-17T15:02:08.693Z,22.36
2019-05-17T15:04:43.151Z,22.36
2019-05-17T15:07:17.890Z,22.24
2019-05-17T15:09:52.304Z,21.84
2019-05-17T15:12:28.727Z,22.08
2019-05-17T15:15:02.902Z,23.20
2019-05-17T15:17:37.534Z,23.20
2019-05-17T15:20:12.260Z,23.00
2019-05-17T15:22:46.712Z,23.00
2019-05-17T15:25:21.283Z,21.98
2019-05-17T15:27:55.749Z,21.59
2019-05-17T15:30:29.547Z,21.56
2019-05-17T15:33:04.218Z,20.99
2019-05-17T15:35:39.733Z,21.17
2019-05-17T15:38:14.283Z,21.26
2019-05-17T15:40:48.759Z,21.15
2019-05-17T15:43:23.280Z,20.83
2019-05-17T15:45:57.736Z,20.47
2019-05-17T15:48:32.284Z,20.18
2019-05-17T15:51:06.940Z,19.88
2019-05-17T15:53:41.282Z,19.65
2019-05-17T15:56:15.761Z,19.63
2019-05-17T15:58:48.907Z,19.63
2019-05-17T16:01:23.313Z,19.77
2019-05-17T16:03:57.951Z,19.84
2019-05-17T16:06:32.643Z,19.56
2019-05-17T16:09:08.322Z,19.56
2019-05-17T16:11:42.817Z,19.43
2019-05-17T16:14:17.243Z,19.48
2019-05-17T16:16:52.731Z,19.58
2019-05-17T16:19:25.852Z,19.72
2019-05-17T16:21:58.872Z,19.72
2019-05-17T16:24:32.956Z,19.51
2019-05-17T16:27:07.359Z,19.47
2019-05-17T16:29:42.290Z,19.12
2019-05-17T16:32:16.950Z,18.89
2019-05-17T16:34:51.417Z,18.89
2019-05-17T16:37:26.246Z,18.89
2019-05-17T16:40:00.958Z,18.97
2019-05-17T16:42:37.355Z,19.41
2019-05-17T16:45:13.949Z,19.41
2019-05-17T16:47:49.286Z,19.54
2019-05-17T16:50:24.136Z,19.44
2019-05-17T16:53:05.869Z,19.36
2019-05-17T16:55:35.708Z,19.31
2019-05-17T16:58:10.289Z,19.15
2019-05-17T17:00:46.292Z,19.00
2019-05-17T17:03:21.136Z,18.81
2019-05-17T17:05:56.749Z,18.67
2019-05-17T17:08:31.288Z,18.60
2019-05-17T17:11:05.957Z,18.61
2019-05-17T17:13:40.332Z,18.65
2019-05-17T17:16:14.944Z,18.65
2019-05-17T17:18:49.355Z,18.66
2019-05-17T17:21:24.003Z,18.61
2019-05-17T17:23:58.779Z,18.64
2019-05-17T17:26:32.110Z,18.53
2019-05-17T17:29:06.595Z,18.53
2019-05-17T17:31:41.286Z,18.51
2019-05-17T17:34:15.945Z,18.48
2019-05-17T17:36:50.292Z,18.46
2019-05-17T17:41:44.935Z,18.46
2019-05-17T17:44:19.652Z,18.23
2019-05-17T17:46:54.256Z,18.23
2019-05-17T17:49:29.150Z,18.10
2019-05-17T17:52:03.734Z,18.05
2019-05-17T17:54:36.900Z,18.00
2019-05-17T17:57:09.874Z,18.00
2019-05-17T17:59:44.285Z,17.89
2019-05-17T18:02:18.905Z,17.75
2019-05-17T18:04:53.407Z,17.66
2019-05-17T18:07:27.960Z,17.66
2019-05-17T18:10:02.354Z,17.58
2019-05-17T18:12:36.961Z,17.45
2019-05-17T18:15:11.602Z,17.38
2019-05-17T18:17:45.961Z,17.34
2019-05-17T18:20:20.305Z,17.28
2019-05-17T18:22:54.907Z,17.26
2019-05-17T18:25:27.864Z,17.22
2019-05-17T18:28:02.282Z,17.21
2019-05-17T18:30:36.908Z,17.18
2019-05-17T18:33:12.700Z,17.12
2019-05-17T18:35:47.295Z,17.09
2019-05-17T18:38:24.785Z,17.09
2019-05-17T18:40:58.062Z,17.05
2019-05-17T18:43:32.475Z,17.03
2019-05-17T18:46:07.267Z,16.98
2019-05-17T18:48:41.735Z,16.96
2019-05-17T18:53:46.738Z,16.89
2019-05-17T18:56:19.808Z,16.78
2019-05-17T18:58:54.283Z,16.73
2019-05-17T19:01:28.955Z,16.71
2019-05-17T19:04:03.675Z,16.64
2019-05-17T19:06:38.188Z,16.64
2019-05-17T19:09:12.780Z,16.60
2019-05-17T19:11:47.291Z,16.50
2019-05-17T19:14:21.741Z,16.42
2019-05-17T19:16:56.149Z,16.34
2019-05-17T19:19:30.690Z,16.21
2019-05-17T19:22:05.273Z,16.21
2019-05-17T19:24:39.775Z,16.15
2019-05-17T19:27:12.834Z,16.01
2019-05-17T19:29:47.266Z,16.01
2019-05-17T19:32:21.742Z,15.88
2019-05-17T19:34:56.282Z,15.76
2019-05-17T19:37:30.968Z,15.73
2019-05-17T19:40:06.659Z,15.59
2019-05-17T19:42:40.956Z,15.48
2019-05-17T19:45:16.764Z,15.46
2019-05-17T19:47:51.298Z,15.46
2019-05-17T19:50:25.797Z,15.37
2019-05-17T19:52:58.876Z,15.31
2019-05-17T19:55:33.320Z,15.27
2019-05-17T19:58:08.294Z,15.20
2019-05-17T20:00:42.886Z,15.10
2019-05-17T20:03:17.279Z,15.04
2019-05-17T20:05:51.762Z,15.01
2019-05-17T20:08:24.871Z,14.97
2019-05-17T20:10:57.992Z,14.90
2019-05-17T20:14:14.886Z,14.94
2019-05-17T20:16:49.279Z,14.85
2019-05-17T20:19:23.717Z,14.81
2019-05-17T20:21:58.294Z,14.71
2019-05-17T20:24:32.811Z,14.57
2019-05-17T20:27:07.339Z,14.57
2019-05-17T20:29:41.945Z,14.57
2019-05-17T20:32:16.345Z,14.55
2019-05-17T20:34:51.017Z,14.54
2019-05-17T20:37:25.683Z,14.46
2019-05-17T20:40:00.157Z,14.46
2019-05-17T20:42:34.693Z,14.44
2019-05-17T20:45:10.788Z,14.44
2019-05-17T20:47:43.872Z,14.44
2019-05-17T20:50:18.337Z,14.41
2019-05-17T20:52:53.135Z,14.34
2019-05-17T20:55:27.798Z,14.32
2019-05-17T20:58:00.987Z,14.29
2019-05-17T21:00:33.722Z,14.23
2019-05-17T21:03:07.957Z,14.15
2019-05-17T21:05:42.287Z,14.15
2019-05-17T21:08:16.747Z,14.10
2019-05-17T21:10:50.108Z,14.05
2019-05-17T21:13:24.748Z,14.02
2019-05-17T21:15:59.249Z,14.02
2019-05-17T21:18:33.954Z,14.03
2019-05-17T21:21:08.698Z,14.01
2019-05-17T21:23:43.252Z,14.04
2019-05-17T21:26:17.722Z,14.01
2019-05-17T21:28:52.281Z,14.00
2019-05-17T21:31:26.736Z,13.99
2019-05-17T21:34:01.415Z,14.03
2019-05-17T21:37:34.893Z,14.14
2019-05-17T21:40:10.319Z,14.14
2019-05-17T21:42:45.125Z,14.10
2019-05-17T21:45:19.775Z,14.08
2019-05-17T21:47:54.292Z,14.08
2019-05-17T21:50:29.069Z,14.05
2019-05-17T21:53:03.669Z,14.01
2019-05-17T21:55:38.299Z,14.01
2019-05-17T21:58:12.761Z,13.95
2019-05-17T22:01:19.800Z,13.93
2019-05-17T22:03:54.286Z,13.85
2019-05-17T22:06:28.748Z,13.84
2019-05-17T22:09:02.124Z,13.73
2019-05-17T22:11:40.321Z,13.73
2019-05-17T22:14:14.949Z,13.63
2019-05-17T22:16:49.576Z,13.63
2019-05-17T22:19:24.114Z,13.55
2019-05-17T22:21:58.797Z,13.46
2019-05-17T22:24:33.104Z,13.46
2019-05-17T22:27:07.720Z,13.46
2019-05-17T22:29:42.138Z,13.42
2019-05-17T22:32:16.727Z,13.39
2019-05-17T22:34:51.087Z,13.32
2019-05-17T22:37:25.636Z,13.19
2019-05-17T22:40:00.289Z,13.19
2019-05-17T22:42:34.709Z,13.14
2019-05-17T22:45:09.365Z,13.06
2019-05-17T22:47:43.909Z,13.04
2019-05-17T22:50:18.289Z,12.97
2019-05-17T22:52:52.739Z,12.90
2019-05-17T22:55:25.715Z,12.87
2019-05-17T22:58:00.289Z,12.81
2019-05-17T23:00:35.905Z,12.73
2019-05-17T23:03:10.278Z,12.69
2019-05-17T23:05:44.887Z,12.64
2019-05-17T23:08:18.040Z,12.57
2019-05-17T23:10:52.648Z,12.52
2019-05-17T23:13:26.946Z,12.51
2019-05-17T23:16:03.129Z,12.43
2019-05-17T23:18:37.705Z,12.38
2019-05-17T23:21:11.295Z,12.24
2019-05-17T23:23:45.634Z,12.20
2019-05-17T23:26:18.813Z,12.20
2019-05-17T23:28:52.951Z,12.17
2019-05-17T23:31:26.076Z,12.16
2019-05-17T23:34:00.326Z,12.12
2019-05-17T23:36:34.750Z,12.10
2019-05-17T23:39:09.955Z,12.01
2019-05-17T23:41:44.314Z,11.98
2019-05-17T23:44:18.738Z,11.98
2019-05-17T23:47:06.250Z,11.92
2019-05-17T23:49:29.284Z,11.89
2019-05-17T23:52:03.819Z,11.88
2019-05-17T23:54:38.285Z,11.86
2019-05-17T23:57:12.741Z,11.82
2019-05-17T23:59:47.132Z,11.77
